Popsquash, Vermont
Current Conditions -  °F | °C
As of 7:55 PM on Saturday 22 Nov 2014 (Local Time) from KFSO Reporting Station
Overcast Overcast  
Wind Chill: 27°   Ceiling: 2300
Heat Index: 35°   Visibility: 10mi
Dew Point: 25°   Wind: 10mph
Humidity: 66%   Direction: 180°S
Pressure: 29.92"   Gusts: 16mph
Location:  44.9002°N, 73.1493°W
Report Text: KFSO 230055Z AUTO 18009G14KT 10SM OVC023 02/M04 A2992 RMK AO2 T00171041
Loading
Personal Weather Stations






























Interactive Weather Map New forecast layout! Learn more

10-Day Weather Forecast

Advertisements
Track Severe Weather on mobile